Ban Baen Chado, Thailand

12:16 PM +07 on June 25, 2017 (GMT +0700)
นวมินทร์ 74 แยก 3-8-21 | | Change Station

Elev 13 ft 13.81 °N, 100.67 °E | Updated 13 minutes ago

Clear
Clear
92.3 °F
Feels Like 105 °F
N
0.6
Wind Variable Wind from SW
Gusts 1.2 mph

Today
High -- | Low -- °F
--% Chance of Precip.
Yesterday
High -- | Low -- °F
Precip. -- in
Pressure 29.71 in
Visibility 6.2 miles
Clouds Few 3000 ft
Heat Index 105 °F
Dew Point 76 °F
Humidity 59%
Rainfall 0.00 in
Snow Depth Not available.
5:51 AM 6:47 PM
New Moon, 2% visible
METAR VTBD 250500Z 28009KT 230V320 9999 FEW030 32/24 Q1006 NOSIG
Pressure 29.71 in
Visibility 6.2 miles
Clouds Few 3000 ft
Heat Index 105 °F
Dew Point 76 °F
Humidity 59%
Rainfall 0.00 in
Snow Depth Not available.
5:51 AM 6:47 PM
New Moon, 2% visible
METAR VTBD 250500Z 28009KT 230V320 9999 FEW030 32/24 Q1006 NOSIG

Get Severe Weather Alerts

Thanks for signing up!

Be on the lookout for a verification email in your inbox.

You'll start receiving the daily forecast at 6 AM.

×

10-Day Weather Forecast

No radar image for this location.
×

Almanac

Astronomy

Jun. 25, 2017 Rise Set
Actual Time
Civil Twilight
Nautical Twilight
Astronomical Twilight
Moon
Length of Visible Light
Length of Day
Tomorrow will be .
, % of the Moon is Illuminated

Today's Extremes

Country Highs Country Lows

Community

WunderPhotos

Category 6

Welcome to Category 6. This is the collective home for Weather Underground's featured writeups by Dr. Jeff Masters (right), Bob Henson (left), Chris Burt, and other regular contributors.

Nearby

Air Quality

  Air Quality AQ Index Pollutant
Not available.

Snow Depth

Station Depth Elevation

Earthquake Activity

City Distance Mag. Time & Date
Minimum magnitude displayed is 2.5.

Coastal Water Temperatures

Place Temperature

Stations

Nearby Weather Stations

Station Location Temp. Windchill Dew Point Humidity Wind Precip. Elev Updated Type